Time;durP1;ratioP1;P1;durP2;ratioP2;P2;SDS_P1;SDS_P2;PMS_P1;PMS_P2;Temp;Humidity;BMP_temperature;BMP_pressure;BME280_temperature;BME280_humidity;BME280_pressure;Samples;Min_cycle;Max_cycle;Signal;HPM_P1;HPM_P2
2021/07/19 00:02:24;;;;;;;2.77;1.10;;;;;;;;;;5015848;28;20068;-60
2021/07/19 00:04:51;;;;;;;2.57;1.00;;;;;;;;;;5015382;28;20042;-60
2021/07/19 00:07:18;;;;;;;7.43;1.10;;;;;;;;;;5015327;28;20030;-60
2021/07/19 00:09:44;;;;;;;1.67;0.83;;;;;;;;;;5016030;28;20053;-60
2021/07/19 00:14:48;;;;;;;2.80;0.60;;;;;;;;;;5038617;23;20189;-60
2021/07/19 00:17:16;;;;;;;3.67;0.90;;;;;;;;;;4976286;28;20058;-60
2021/07/19 00:19:45;;;;;;;2.67;1.03;;;;;;;;;;4976371;28;20027;-60
2021/07/19 00:22:12;;;;;;;3.93;1.17;;;;;;;;;;4975091;28;20067;-60
2021/07/19 00:24:39;;;;;;;2.20;0.80;;;;;;;;;;4959233;28;20385;-60
2021/07/19 00:27:06;;;;;;;2.53;1.00;;;;;;;;;;4976166;28;20117;-60
2021/07/19 00:29:33;;;;;;;1.40;0.90;;;;;;;;;;4976108;28;20054;-60
2021/07/19 00:31:59;;;;;;;2.90;1.10;;;;;;;;;;4976236;28;20038;-60
2021/07/19 00:34:26;;;;;;;5.20;0.90;;;;;;;;;;4976003;28;20031;-60
2021/07/19 00:36:54;;;;;;;7.97;1.77;;;;;;;;;;4976094;28;20058;-60
2021/07/19 00:39:21;;;;;;;9.87;1.30;;;;;;;;;;4976129;28;20038;-60
2021/07/19 00:41:48;;;;;;;3.20;0.90;;;;;;;;;;4976073;28;20082;-60
2021/07/19 00:44:19;;;;;;;3.17;1.10;;;;;;;;;;4975756;28;20029;-60
2021/07/19 00:46:47;;;;;;;6.57;1.30;;;;;;;;;;4976041;28;20027;-60
2021/07/19 00:49:14;;;;;;;3.63;1.40;;;;;;;;;;4975984;28;20037;-60
2021/07/19 00:51:42;;;;;;;4.17;1.10;;;;;;;;;;4975885;28;20037;-60
2021/07/19 00:54:09;;;;;;;3.87;1.13;;;;;;;;;;4975668;28;20034;-60
2021/07/19 00:56:37;;;;;;;1.53;0.93;;;;;;;;;;4958394;28;20031;-60
2021/07/19 00:59:04;;;;;;;3.67;1.23;;;;;;;;;;4975525;28;20034;-60
2021/07/19 01:01:31;;;;;;;2.60;1.03;;;;;;;;;;4975517;28;20042;-60
2021/07/19 01:03:59;;;;;;;5.30;1.17;;;;;;;;;;4975554;28;20058;-60
2021/07/19 02:15:14;;;;;;;5.00;0.90;;;;;;;;;;4993968;28;20081;-60
2021/07/19 02:17:43;;;;;;;4.93;1.27;;;;;;;;;;4993580;28;20057;-60
2021/07/19 02:20:11;;;;;;;2.63;1.20;;;;;;;;;;4993679;28;20109;-60
2021/07/19 02:22:40;;;;;;;6.60;0.90;;;;;;;;;;4992813;28;20054;-58
2021/07/19 02:25:08;;;;;;;2.53;0.93;;;;;;;;;;4993371;28;20093;-59
2021/07/19 02:27:37;;;;;;;3.77;1.17;;;;;;;;;;4993520;28;20022;-59
2021/07/19 02:30:05;;;;;;;2.87;1.10;;;;;;;;;;4993382;28;20034;-59
2021/07/19 02:32:32;;;;;;;3.53;1.60;;;;;;;;;;4993442;28;20113;-59
2021/07/19 02:34:59;;;;;;;3.47;1.70;;;;;;;;;;4993442;28;20026;-59
2021/07/19 02:37:26;;;;;;;9.53;2.50;;;;;;;;;;4993365;28;20389;-58
2021/07/19 02:39:53;;;;;;;5.87;2.43;;;;;;;;;;4993321;28;20022;-59
2021/07/19 02:42:20;;;;;;;5.53;2.23;;;;;;;;;;4993464;28;20062;-59
2021/07/19 02:44:47;;;;;;;4.97;1.70;;;;;;;;;;4995201;28;20034;-59
2021/07/19 02:47:16;;;;;;;4.40;1.63;;;;;;;;;;4997391;28;20042;-59
2021/07/19 02:49:43;;;;;;;5.50;1.80;;;;;;;;;;4997357;28;20582;-59
2021/07/19 02:52:10;;;;;;;6.50;1.93;;;;;;;;;;4997354;28;20034;-59
2021/07/19 02:54:37;;;;;;;6.77;1.60;;;;;;;;;;4997310;28;20500;-59
2021/07/19 02:57:04;;;;;;;3.93;1.70;;;;;;;;;;4997286;28;20125;-59
2021/07/19 02:59:31;;;;;;;3.00;1.07;;;;;;;;;;4997146;28;20117;-59
2021/07/19 03:02:01;;;;;;;3.57;1.60;;;;;;;;;;4997190;28;20497;-59
2021/07/19 03:04:28;;;;;;;3.43;1.40;;;;;;;;;;4996954;28;20117;-59
2021/07/19 03:06:59;;;;;;;4.73;1.63;;;;;;;;;;4997747;28;20041;-58
2021/07/19 03:09:28;;;;;;;3.23;1.47;;;;;;;;;;4997356;28;20022;-59
2021/07/19 03:11:55;;;;;;;6.53;2.13;;;;;;;;;;4997058;28;20031;-59
2021/07/19 03:14:24;;;;;;;3.00;1.57;;;;;;;;;;4983645;28;20051;-58
2021/07/19 03:16:51;;;;;;;4.20;1.30;;;;;;;;;;4977648;28;20070;-59
2021/07/19 03:19:25;;;;;;;4.70;1.30;;;;;;;;;;4977512;28;20031;-58
2021/07/19 03:21:54;;;;;;;6.20;1.70;;;;;;;;;;4977324;28;20433;-58
2021/07/19 03:24:22;;;;;;;8.27;1.83;;;;;;;;;;4977229;28;20034;-58
2021/07/19 03:26:50;;;;;;;5.10;1.50;;;;;;;;;;4977210;28;20035;-58
2021/07/19 03:29:17;;;;;;;4.73;1.40;;;;;;;;;;4959981;28;20548;-58
2021/07/19 03:31:44;;;;;;;6.80;1.50;;;;;;;;;;4977242;28;20041;-58
2021/07/19 03:34:12;;;;;;;3.83;1.77;;;;;;;;;;4977197;28;20044;-59
2021/07/19 03:36:39;;;;;;;2.57;1.00;;;;;;;;;;4977161;28;20035;-58
2021/07/19 03:39:06;;;;;;;7.20;2.37;;;;;;;;;;4976994;28;20022;-58
2021/07/19 03:41:33;;;;;;;8.27;2.07;;;;;;;;;;4977014;28;20624;-58
2021/07/19 03:44:01;;;;;;;6.20;1.90;;;;;;;;;;4976840;28;20121;-58
2021/07/19 03:46:28;;;;;;;3.33;1.30;;;;;;;;;;4976814;28;20045;-58
2021/07/19 03:48:55;;;;;;;3.30;1.57;;;;;;;;;;4976799;28;20058;-58
2021/07/19 03:51:23;;;;;;;3.83;1.77;;;;;;;;;;4977149;28;20027;-58
2021/07/19 03:53:50;;;;;;;6.37;2.33;;;;;;;;;;4976749;28;20449;-58
2021/07/19 03:56:17;;;;;;;4.83;2.03;;;;;;;;;;4976668;28;20433;-58
2021/07/19 03:58:45;;;;;;;5.27;2.53;;;;;;;;;;4976772;28;20030;-58
2021/07/19 04:01:12;;;;;;;5.87;3.40;;;;;;;;;;4976805;28;20027;-58
2021/07/19 04:03:48;;;;;;;9.80;4.07;;;;;;;;;;4976727;28;20342;-58
2021/07/19 04:06:18;;;;;;;7.03;3.07;;;;;;;;;;4976528;28;20038;-58
2021/07/19 04:08:46;;;;;;;7.77;3.40;;;;;;;;;;4976572;28;20034;-58
2021/07/19 04:11:17;;;;;;;8.43;2.93;;;;;;;;;;4976515;28;20034;-58
2021/07/19 04:13:44;;;;;;;5.43;2.27;;;;;;;;;;4978296;28;20045;-58
2021/07/19 04:16:15;;;;;;;7.50;2.70;;;;;;;;;;4977143;28;20089;-58
2021/07/19 04:18:42;;;;;;;3.63;2.20;;;;;;;;;;4976395;28;20100;-58
2021/07/19 04:21:09;;;;;;;8.77;2.90;;;;;;;;;;4976509;28;20035;-58
2021/07/19 04:23:36;;;;;;;8.70;2.57;;;;;;;;;;4958824;28;20041;-58
2021/07/19 04:26:03;;;;;;;8.83;2.23;;;;;;;;;;4976377;28;20046;-58
2021/07/19 04:28:30;;;;;;;9.67;2.33;;;;;;;;;;4976215;28;20469;-58
2021/07/19 04:30:57;;;;;;;9.67;2.90;;;;;;;;;;4976069;28;20469;-59
2021/07/19 04:33:24;;;;;;;5.57;1.90;;;;;;;;;;4976055;28;20082;-58
2021/07/19 04:35:51;;;;;;;2.87;1.50;;;;;;;;;;4976052;28;20062;-58
2021/07/19 04:38:19;;;;;;;4.00;1.70;;;;;;;;;;4975911;28;20363;-59
2021/07/19 04:40:49;;;;;;;6.83;2.23;;;;;;;;;;4975863;28;20027;-58
2021/07/19 04:43:16;;;;;;;3.53;1.97;;;;;;;;;;4975810;28;20085;-58
2021/07/19 04:45:45;;;;;;;4.27;2.00;;;;;;;;;;4975657;28;20035;-58
2021/07/19 04:48:12;;;;;;;2.73;1.60;;;;;;;;;;4975825;28;20034;-58
2021/07/19 19:14:24;;;;;;;3.22;1.15;;;;;;;;;;4999516;28;20090;-59
2021/07/19 19:16:51;;;;;;;3.63;1.40;;;;;;;;;;4973871;28;20035;-59
2021/07/19 19:19:17;;;;;;;2.83;0.98;;;;;;;;;;4973991;28;20031;-59
2021/07/19 19:21:44;;;;;;;2.88;1.05;;;;;;;;;;4973590;28;20034;-59
2021/07/19 19:24:11;;;;;;;2.08;1.00;;;;;;;;;;4973772;28;20063;-59
2021/07/19 19:26:38;;;;;;;25.42;2.85;;;;;;;;;;4975234;28;20038;-60
2021/07/19 19:29:05;;;;;;;2.42;1.20;;;;;;;;;;4977426;28;20042;-59
2021/07/19 19:31:32;;;;;;;2.47;1.02;;;;;;;;;;4977361;28;20484;-59
2021/07/19 19:33:59;;;;;;;1.63;1.02;;;;;;;;;;4977329;28;20026;-59
2021/07/19 19:36:26;;;;;;;2.45;1.02;;;;;;;;;;4977285;28;20027;-60
